Alaska B734 and Alaska Central Express B190 at Anchorage on May 27th 2014, near collision during go-around/takeoff

Last Update: May 29, 2014 / 19:06:19 GMT/Zulu time

Bookmark this article
Incident Facts

Date of incident
May 27, 2014

Classification
Incident

Flight number
AS-135

Aircraft Registration
N792AS

Aircraft Type
Boeing 737-400

ICAO Type Designator
B734

An Alaska Airlines Boeing 737-400, registration N792AS performing flight AS-135 from Portland,OR to Anchorage,AK (USA) with 143 passengers and 5 crew, was on final approach to runway 15 and was cleared to land on the shortened runway.

An Alaska Central Express Beech 1900 freighter, freight flight KO-65 from Anchorage,AK to Sand Point,AK (USA) with 2 crew, was waiting for departure from runway 15 behind another landing aircraft.

After the landing traffic had vacated the runway Tower cleared the Beech for takeoff from runway 15 advising a Boeing 737 was on a 2nm final. About one minute after issuing the takeoff clearance, at 15:09L (23:09Z), Tower instructed the Boeing to go around and turn right onto a heading of 220, subsequently amended to 250 degrees, then handed both aircraft off to departure.

The NTSB reported the Beech became airborne and turned right, the Boeing also turned right, the separation between the two aircraft reduced to 0 feet vertical and 0.25nm laterally. The occurrence was rated a near collision, an investigation has been opened.




Metars:
ANC 280153Z 13012G20KT 10SM FEW050 BKN075 OVC090 12/02 A3009 RMK AO2 SLP191 SH DSNT N AND W T01220022
PANC 280053Z 14012G24KT 10SM FEW043 SCT055 OVC090 12/03 A3010 RMK AO2 SLP192 SH DSNT NW-NE T01220028
PANC 272353Z 14012G19KT 10SM FEW043 BKN055 OVC085 13/03 A3010 RMK AO2 SLP194 VIRGA W 60000 T01280028 10128 20100 55002
PANC 272253Z 14014G21KT 10SM FEW030 SCT043 OVC070 13/03 A3010 RMK AO2 RAE47 SLP194 PRESENT WX VCSH E-SE P0000 T01280028
PANC 272153Z 15011G20KT 10SM -RA FEW012 SCT043 OVC070 12/03 A3011 RMK AO2 SLP195 P0000 T01220033
PANC 272053Z 14010G18KT 10SM -RA FEW012 SCT043 OVC060 12/04 A3011 RMK AO2 SLP196 VIS LWR N-NE P0000 60000 T01170039 53002
PANC 271953Z 14011G18KT 10SM -RA FEW012 SCT043 OVC060 11/03 A3010 RMK AO2 SLP194 VIS LWR N-NE P0000 T01110033
Aircraft Registration Data
Registration mark
N792AS
Country of Registration
United States
Date of Registration
FqpAlhAkkeAeke Subscribe to unlock
Manufacturer
BOEING
Aircraft Model / Type
737-490
Number of Seats
ICAO Aircraft Type
B734
Year of Manufacture
Serial Number
Aircraft Address / Mode S Code (HEX)
Engine Count
Engine Manufacturer
Engine Model
Plcqcmdqqkcg Subscribe to unlock
Engine Type
Main Owner
KbmfqjmgeeAnfhAqmqplghfiddcniAij hbciidpqckjlji kndmeplekpbjAqefgcbfpndgcgjlh mhh mhccpjknk k bejqffAg Subscribe to unlock
Incident Facts

Date of incident
May 27, 2014

Classification
Incident

Flight number
AS-135

Aircraft Registration
N792AS

Aircraft Type
Boeing 737-400

ICAO Type Designator
B734

This article is published under license from Avherald.com. © of text by Avherald.com.
Article source

You can read 2 more free articles without a subscription.

Subscribe now and continue reading without any limits!

Are you a subscriber? Login
Subscribe

Read unlimited articles and receive our daily update briefing. Gain better insights into what is happening in commercial aviation safety.

Send tip

Support AeroInside by sending a small tip amount.

Related articles

Newest articles

Subscribe today

Are you researching aviation incidents? Get access to AeroInside Insights, unlimited read access and receive the daily newsletter.

Pick your plan and subscribe

Partner

Blockaviation logo

A new way to document and demonstrate airworthiness compliance and aircraft value. Find out more.

ELITE Logo

ELITE Simulation Solutions is a leading global provider of Flight Simulation Training Devices, IFR training software as well as flight controls and related services. Find out more.

Blue Altitude Logo

Your regulation partner, specialists in aviation safety and compliance; providing training, auditing, and consultancy services. Find out more.

AeroInside Blog
Popular aircraft
Airbus A320
Boeing 737-800
Boeing 737-800 MAX
Popular airlines
American Airlines
United
Delta
Air Canada
Lufthansa
British Airways